METAR Data
IDs: Format: Raw Decoded Include TAF

Data at: 0204 UTC 01 Mar 2021

UKOO 010200Z 29003MPS 9000 -SHRASN BKN004 BKN016CB 01/01 Q1023 R34/290054 NOSIG